createdAt,value
2022-11-18T00:00:14.604Z,0.00
2022-11-18T00:01:14.563Z,0.00
2022-11-18T00:02:15.173Z,0.00
2022-11-18T00:03:14.540Z,0.00
2022-11-18T00:04:14.534Z,0.00
2022-11-18T00:05:14.530Z,0.00
2022-11-18T00:06:14.546Z,0.00
2022-11-18T00:07:14.580Z,0.00
2022-11-18T00:08:14.512Z,0.00
2022-11-18T00:09:14.995Z,0.00
2022-11-18T00:10:14.524Z,0.00
2022-11-18T00:11:14.479Z,0.00
2022-11-18T00:12:14.447Z,0.00
2022-11-18T00:13:14.441Z,0.00
2022-11-18T00:14:14.438Z,0.00
2022-11-18T00:15:14.416Z,0.00
2022-11-18T00:16:14.440Z,0.00
2022-11-18T00:17:14.423Z,0.00
2022-11-18T00:18:14.394Z,0.00
2022-11-18T00:19:14.671Z,0.00
2022-11-18T00:20:14.379Z,0.00
2022-11-18T00:21:14.352Z,0.00
2022-11-18T00:22:14.404Z,0.00
2022-11-18T00:23:14.339Z,0.00
2022-11-18T00:24:14.387Z,0.00
2022-11-18T00:25:15.139Z,0.00
2022-11-18T00:26:14.325Z,0.00
2022-11-18T00:27:14.323Z,0.00
2022-11-18T00:28:14.309Z,0.00
2022-11-18T00:29:15.017Z,0.00
2022-11-18T00:30:14.266Z,0.00
2022-11-18T00:31:14.253Z,0.00
2022-11-18T00:32:14.255Z,0.00
2022-11-18T00:33:14.239Z,0.00
2022-11-18T00:34:14.274Z,0.00
2022-11-18T00:35:14.215Z,0.00
2022-11-18T00:36:14.234Z,0.00
2022-11-18T00:37:14.194Z,0.00
2022-11-18T00:38:14.225Z,0.00
2022-11-18T00:39:14.603Z,0.00
2022-11-18T00:40:14.192Z,0.00
2022-11-18T00:41:14.157Z,0.00
2022-11-18T00:42:14.134Z,0.00
2022-11-18T00:43:14.134Z,0.00
2022-11-18T00:44:14.150Z,0.00
2022-11-18T00:45:14.156Z,0.00
2022-11-18T00:46:14.102Z,0.00
2022-11-18T00:47:14.093Z,0.00
2022-11-18T00:48:14.071Z,0.00
2022-11-18T00:49:14.380Z,0.00
2022-11-18T00:50:14.053Z,0.00
2022-11-18T00:51:14.089Z,0.00
2022-11-18T00:52:14.064Z,0.00
2022-11-18T00:53:14.032Z,0.00
2022-11-18T00:54:14.006Z,0.00
2022-11-18T00:55:14.001Z,0.00
2022-11-18T00:56:14.034Z,0.00
2022-11-18T00:57:14.023Z,0.00
2022-11-18T00:58:13.987Z,0.00
2022-11-18T00:59:13.961Z,0.00
2022-11-18T01:00:13.995Z,0.00
2022-11-18T01:01:14.084Z,0.00
2022-11-18T01:02:13.939Z,0.00
2022-11-18T01:03:13.920Z,0.00
2022-11-18T01:04:13.904Z,0.00
2022-11-18T01:05:13.906Z,0.00
2022-11-18T01:06:13.950Z,0.00
2022-11-18T01:07:13.912Z,0.00
2022-11-18T01:08:13.882Z,0.00
2022-11-18T01:09:13.976Z,0.00
2022-11-18T01:10:13.842Z,0.00
2022-11-18T01:11:13.901Z,0.00
2022-11-18T01:12:13.867Z,0.00
2022-11-18T01:13:13.856Z,0.00
2022-11-18T01:14:13.801Z,0.00
2022-11-18T01:15:13.806Z,0.00
2022-11-18T01:16:13.783Z,0.00
2022-11-18T01:17:18.683Z,0.00
2022-11-18T01:18:13.772Z,0.00
2022-11-18T01:19:13.803Z,0.00
2022-11-18T01:20:13.747Z,0.00
2022-11-18T01:21:13.778Z,0.00
2022-11-18T01:22:13.716Z,0.00
2022-11-18T01:23:13.704Z,0.00
2022-11-18T01:24:13.726Z,0.00
2022-11-18T01:25:14.648Z,0.00
2022-11-18T01:26:13.675Z,0.00
2022-11-18T01:27:13.676Z,0.00
2022-11-18T01:28:16.477Z,0.00
2022-11-18T01:29:14.870Z,0.00
2022-11-18T01:30:13.637Z,0.00
2022-11-18T01:31:13.618Z,0.00
2022-11-18T01:32:29.068Z,0.00
2022-11-18T01:33:14.615Z,0.00
2022-11-18T01:34:13.626Z,0.00
2022-11-18T01:35:13.577Z,0.00
2022-11-18T01:36:13.618Z,0.00
2022-11-18T01:37:13.555Z,0.00
2022-11-18T01:38:13.551Z,0.00
2022-11-18T01:39:13.538Z,0.00
2022-11-18T01:40:13.568Z,0.00
2022-11-18T01:41:13.530Z,0.00
2022-11-18T01:42:13.530Z,0.00
2022-11-18T01:43:13.536Z,0.00
2022-11-18T01:44:13.514Z,0.00
2022-11-18T01:45:13.607Z,0.00
2022-11-18T01:46:13.470Z,0.00
2022-11-18T01:47:13.458Z,0.00
2022-11-18T01:48:13.467Z,0.00
2022-11-18T01:49:13.432Z,0.00
2022-11-18T01:50:13.431Z,0.00
2022-11-18T01:51:13.439Z,0.00
2022-11-18T01:52:13.414Z,0.00
2022-11-18T01:53:13.390Z,0.00
2022-11-18T01:54:13.399Z,0.00
2022-11-18T01:55:13.365Z,0.00
2022-11-18T01:56:13.396Z,0.00
2022-11-18T01:57:13.377Z,0.00
2022-11-18T01:58:13.417Z,0.00
2022-11-18T01:59:14.275Z,0.00
2022-11-18T02:00:13.352Z,0.00
2022-11-18T02:01:13.350Z,0.00
2022-11-18T02:02:13.303Z,0.00
2022-11-18T02:03:13.294Z,0.00
2022-11-18T02:04:13.298Z,0.00
2022-11-18T02:05:13.266Z,0.00
2022-11-18T02:06:13.297Z,0.00
2022-11-18T02:07:13.331Z,0.00
2022-11-18T02:08:13.289Z,0.00
2022-11-18T02:09:14.155Z,0.00
2022-11-18T02:10:13.228Z,0.00
2022-11-18T02:11:13.207Z,0.00
2022-11-18T02:12:13.255Z,0.00
2022-11-18T02:13:13.241Z,0.00
2022-11-18T02:14:13.188Z,0.00
2022-11-18T02:15:13.162Z,0.00
2022-11-18T02:16:13.177Z,0.00
2022-11-18T02:17:13.136Z,0.00
2022-11-18T02:18:13.134Z,0.00
2022-11-18T02:19:13.149Z,0.00
2022-11-18T02:20:13.130Z,0.00
2022-11-18T02:21:13.127Z,0.00
2022-11-18T02:22:13.138Z,0.00
2022-11-18T02:23:13.074Z,0.00
2022-11-18T02:24:13.112Z,0.00
2022-11-18T02:25:13.064Z,0.00
2022-11-18T02:26:13.106Z,0.00
2022-11-18T02:27:13.035Z,0.00
2022-11-18T02:28:13.030Z,0.00
2022-11-18T02:29:13.039Z,0.00
2022-11-18T02:30:13.012Z,0.00
2022-11-18T02:31:13.032Z,0.00
2022-11-18T02:32:13.082Z,0.00
2022-11-18T02:33:12.981Z,0.00
2022-11-18T02:34:12.985Z,0.00
2022-11-18T02:35:12.950Z,0.00
2022-11-18T02:36:13.018Z,0.00
2022-11-18T02:37:12.957Z,0.00
2022-11-18T02:38:12.928Z,0.00
2022-11-18T02:39:12.963Z,0.00
2022-11-18T02:40:12.900Z,0.00
2022-11-18T02:41:12.892Z,0.00
2022-11-18T02:42:12.918Z,0.00
2022-11-18T02:43:12.909Z,0.00
2022-11-18T02:44:12.884Z,0.00
2022-11-18T02:45:12.870Z,0.00
2022-11-18T02:46:12.847Z,0.00
2022-11-18T02:47:12.899Z,0.00
2022-11-18T02:48:12.954Z,0.00
2022-11-18T02:49:12.940Z,0.00
2022-11-18T02:50:12.794Z,0.00
2022-11-18T02:51:12.785Z,0.00
2022-11-18T02:52:12.780Z,0.00
2022-11-18T02:53:12.777Z,0.00
2022-11-18T02:54:12.774Z,0.00
2022-11-18T02:55:12.778Z,0.00
2022-11-18T02:56:12.740Z,0.00
2022-11-18T02:57:12.727Z,0.00
2022-11-18T02:58:12.726Z,0.00
2022-11-18T02:59:12.701Z,0.00
2022-11-18T03:00:12.706Z,0.00
2022-11-18T03:01:12.799Z,0.00
2022-11-18T03:02:12.686Z,0.00
2022-11-18T03:03:13.174Z,0.00
2022-11-18T03:04:12.675Z,0.00
2022-11-18T03:05:12.685Z,0.00
2022-11-18T03:06:12.673Z,0.00
2022-11-18T03:07:12.714Z,0.00
2022-11-18T03:08:12.637Z,0.00
2022-11-18T03:09:12.612Z,0.00
2022-11-18T03:10:12.596Z,0.00
2022-11-18T03:11:12.590Z,0.00
2022-11-18T03:12:12.612Z,0.00
2022-11-18T03:13:12.588Z,0.00
2022-11-18T03:14:12.550Z,0.00
2022-11-18T03:15:12.542Z,0.00
2022-11-18T03:16:12.534Z,0.00
2022-11-18T03:17:12.573Z,0.00
2022-11-18T03:18:12.521Z,0.00
2022-11-18T03:19:12.496Z,0.00
2022-11-18T03:20:12.504Z,0.00
2022-11-18T03:21:12.472Z,0.00
2022-11-18T03:22:12.506Z,0.00
2022-11-18T03:23:12.486Z,0.00
2022-11-18T03:24:12.456Z,0.00
2022-11-18T03:25:12.483Z,0.00
2022-11-18T03:26:13.178Z,0.00
2022-11-18T03:27:12.412Z,0.00
2022-11-18T03:28:12.420Z,0.00
2022-11-18T03:29:12.395Z,0.00
2022-11-18T03:30:12.448Z,0.00
2022-11-18T03:31:12.372Z,0.00
2022-11-18T03:32:12.371Z,0.00
2022-11-18T03:33:12.352Z,0.00
2022-11-18T03:34:12.354Z,0.00
2022-11-18T03:35:12.332Z,0.00
2022-11-18T03:36:12.373Z,0.00
2022-11-18T03:37:12.313Z,0.00
2022-11-18T03:38:12.354Z,0.00
2022-11-18T03:39:12.289Z,0.00
2022-11-18T03:40:12.308Z,0.00
2022-11-18T03:41:12.268Z,0.00
2022-11-18T03:42:12.269Z,0.00
2022-11-18T03:43:12.249Z,0.00
2022-11-18T03:44:12.230Z,0.00
2022-11-18T03:45:12.228Z,0.00
2022-11-18T03:46:12.242Z,0.00
2022-11-18T03:47:17.197Z,0.00
2022-11-18T03:48:12.208Z,0.00
2022-11-18T03:49:12.186Z,0.00
2022-11-18T03:50:12.175Z,0.00
2022-11-18T03:51:12.183Z,0.00
2022-11-18T03:52:12.188Z,0.00
2022-11-18T03:53:12.158Z,0.00
2022-11-18T03:54:12.137Z,0.00
2022-11-18T03:55:12.121Z,0.00
2022-11-18T03:56:17.127Z,0.00
2022-11-18T03:57:13.127Z,0.00
2022-11-18T03:58:12.120Z,0.00
2022-11-18T03:59:12.090Z,0.00
2022-11-18T04:00:12.069Z,0.00
2022-11-18T04:01:12.061Z,0.00
2022-11-18T04:02:12.108Z,0.00
2022-11-18T04:03:12.074Z,0.00
2022-11-18T04:04:12.031Z,0.00
2022-11-18T04:05:12.026Z,0.00
2022-11-18T04:06:12.000Z,0.00
2022-11-18T04:07:12.113Z,0.00
2022-11-18T04:08:12.025Z,0.00
2022-11-18T04:09:11.980Z,0.00
2022-11-18T04:10:11.966Z,0.00
2022-11-18T04:11:11.984Z,0.00
2022-11-18T04:12:11.941Z,0.00
2022-11-18T04:13:12.010Z,0.00
2022-11-18T04:14:12.234Z,0.00
2022-11-18T04:15:11.926Z,0.00
2022-11-18T04:16:11.943Z,0.00
2022-11-18T04:17:16.719Z,0.00
2022-11-18T04:18:11.882Z,0.00
2022-11-18T04:19:11.873Z,0.00
2022-11-18T04:20:11.854Z,0.00
2022-11-18T04:21:19.409Z,0.00
2022-11-18T04:22:11.832Z,0.00
2022-11-18T04:23:11.843Z,0.00
2022-11-18T04:24:11.836Z,0.00
2022-11-18T04:25:11.864Z,0.00
2022-11-18T04:26:11.798Z,0.00
2022-11-18T04:27:11.790Z,0.00
2022-11-18T04:28:11.808Z,0.00
2022-11-18T04:29:11.789Z,0.00
2022-11-18T04:30:11.755Z,0.00
2022-11-18T04:31:11.792Z,0.00
2022-11-18T04:32:11.801Z,0.00
2022-11-18T04:33:11.732Z,0.00
2022-11-18T04:34:11.716Z,0.00
2022-11-18T04:35:11.724Z,0.00
2022-11-18T04:36:11.729Z,0.00
2022-11-18T04:37:11.736Z,0.00
2022-11-18T04:38:11.704Z,0.00
2022-11-18T04:39:11.668Z,0.00
2022-11-18T04:40:11.687Z,0.00
2022-11-18T04:41:11.700Z,0.00
2022-11-18T04:42:11.631Z,0.00
2022-11-18T04:43:11.652Z,0.00
2022-11-18T04:44:11.612Z,0.00
2022-11-18T04:45:11.636Z,0.00
2022-11-18T04:46:11.622Z,0.00
2022-11-18T04:47:11.592Z,0.00
2022-11-18T04:48:11.605Z,0.00
2022-11-18T04:49:11.558Z,0.00
2022-11-18T04:50:11.545Z,0.00
2022-11-18T04:51:11.564Z,0.00
2022-11-18T04:52:11.533Z,0.00
2022-11-18T04:53:11.540Z,0.00
2022-11-18T04:54:11.550Z,0.00
2022-11-18T04:55:11.498Z,0.00
2022-11-18T04:56:11.516Z,0.00
2022-11-18T04:57:11.485Z,0.00
2022-11-18T04:58:11.502Z,0.00
2022-11-18T04:59:11.478Z,0.00
2022-11-18T05:00:11.487Z,0.00
2022-11-18T05:01:11.559Z,0.00
2022-11-18T05:02:11.425Z,0.00
2022-11-18T05:03:11.413Z,0.00
2022-11-18T05:04:11.413Z,0.00
2022-11-18T05:05:11.439Z,0.00
2022-11-18T05:06:11.376Z,0.00
2022-11-18T05:07:11.455Z,0.00
2022-11-18T05:08:11.388Z,0.00
2022-11-18T05:09:11.358Z,0.00
2022-11-18T05:10:11.355Z,0.00
2022-11-18T05:11:11.401Z,0.00
2022-11-18T05:12:11.481Z,0.00
2022-11-18T05:13:11.301Z,0.00
2022-11-18T05:14:11.293Z,0.00
2022-11-18T05:15:11.289Z,0.00
2022-11-18T05:16:11.290Z,0.00
2022-11-18T05:17:11.318Z,0.00
2022-11-18T05:18:11.257Z,0.00
2022-11-18T05:19:11.243Z,0.00
2022-11-18T05:20:11.232Z,0.00
2022-11-18T05:21:11.257Z,0.00
2022-11-18T05:22:11.283Z,0.00
2022-11-18T05:23:11.230Z,0.00
2022-11-18T05:24:11.203Z,0.00
2022-11-18T05:25:11.254Z,0.00
2022-11-18T05:26:11.210Z,0.00
2022-11-18T05:27:11.174Z,0.00
2022-11-18T05:28:11.172Z,0.00
2022-11-18T05:29:11.206Z,0.00
2022-11-18T05:30:11.195Z,0.00
2022-11-18T05:31:11.115Z,0.00
2022-11-18T05:32:11.113Z,0.00
2022-11-18T05:33:11.111Z,0.00
2022-11-18T05:34:11.088Z,0.00
2022-11-18T05:35:11.129Z,0.00
2022-11-18T05:36:11.100Z,0.00
2022-11-18T05:37:11.060Z,0.00
2022-11-18T05:38:11.081Z,0.00
2022-11-18T05:39:11.076Z,0.00
2022-11-18T05:40:11.049Z,0.00
2022-11-18T05:41:11.030Z,0.00
2022-11-18T05:42:11.042Z,0.00
2022-11-18T05:43:10.999Z,0.00
2022-11-18T05:44:11.001Z,0.00
2022-11-18T05:45:10.997Z,0.00
2022-11-18T05:46:10.959Z,0.00
2022-11-18T05:47:15.742Z,0.00
2022-11-18T05:48:10.968Z,0.00
2022-11-18T05:49:10.947Z,0.00
2022-11-18T05:50:10.934Z,0.00
2022-11-18T05:51:10.957Z,0.00
2022-11-18T05:52:10.931Z,0.00
2022-11-18T05:53:10.911Z,0.00
2022-11-18T05:54:10.884Z,0.00
2022-11-18T05:55:10.884Z,0.00
2022-11-18T05:56:10.898Z,0.00
2022-11-18T05:57:10.872Z,0.00
2022-11-18T05:58:11.009Z,0.00
2022-11-18T05:59:10.857Z,0.00
2022-11-18T06:00:11.758Z,0.00
2022-11-18T06:01:10.820Z,0.00
2022-11-18T06:02:10.796Z,0.00
2022-11-18T06:03:10.821Z,0.00
2022-11-18T06:04:10.778Z,0.00
2022-11-18T06:05:10.844Z,0.00
2022-11-18T06:06:10.758Z,0.00
2022-11-18T06:07:10.836Z,0.00
2022-11-18T06:08:10.765Z,0.00
2022-11-18T06:09:10.735Z,0.00
2022-11-18T06:10:10.714Z,0.00
2022-11-18T06:11:10.712Z,0.00
2022-11-18T06:12:10.741Z,0.00
2022-11-18T06:13:10.717Z,0.00
2022-11-18T06:14:10.712Z,0.00
2022-11-18T06:15:10.669Z,0.00
2022-11-18T06:16:10.728Z,0.00
2022-11-18T06:17:15.240Z,0.00
2022-11-18T06:18:10.643Z,0.00
2022-11-18T06:19:10.652Z,0.00
2022-11-18T06:20:10.625Z,0.00
2022-11-18T06:21:10.623Z,0.00
2022-11-18T06:22:10.589Z,0.00
2022-11-18T06:23:10.671Z,0.00
2022-11-18T06:24:10.585Z,0.00
2022-11-18T06:25:10.604Z,0.00
2022-11-18T06:26:10.587Z,0.00
2022-11-18T06:27:10.569Z,0.00
2022-11-18T06:28:10.534Z,0.00
2022-11-18T06:29:10.568Z,0.00
2022-11-18T06:30:10.502Z,0.00
2022-11-18T06:31:10.503Z,0.00
2022-11-18T06:32:10.535Z,0.00
2022-11-18T06:33:10.505Z,0.00
2022-11-18T06:34:10.482Z,0.00
2022-11-18T06:35:10.492Z,0.00
2022-11-18T06:36:10.483Z,0.00
2022-11-18T06:37:10.449Z,0.00
2022-11-18T06:38:10.486Z,0.00
2022-11-18T06:39:10.415Z,0.00
2022-11-18T06:40:10.407Z,0.00
2022-11-18T06:41:10.452Z,0.00
2022-11-18T06:42:10.401Z,0.00
2022-11-18T06:43:10.376Z,0.00
2022-11-18T06:44:10.384Z,0.00
2022-11-18T06:45:10.449Z,0.00
2022-11-18T06:46:10.357Z,0.00
2022-11-18T06:47:10.352Z,0.00
2022-11-18T06:48:10.553Z,0.00
2022-11-18T06:49:10.377Z,0.00
2022-11-18T06:50:10.306Z,0.00
2022-11-18T06:51:10.300Z,0.00
2022-11-18T06:52:10.291Z,0.00
2022-11-18T06:53:10.280Z,0.00
2022-11-18T06:54:11.086Z,0.00
2022-11-18T06:55:10.270Z,0.00
2022-11-18T06:56:10.265Z,0.00
2022-11-18T06:57:10.259Z,0.00
2022-11-18T06:58:10.241Z,0.00
2022-11-18T06:59:10.232Z,0.00
2022-11-18T07:00:10.249Z,0.00
2022-11-18T07:01:10.225Z,0.00
2022-11-18T07:02:10.171Z,0.00
2022-11-18T07:03:10.197Z,0.00
2022-11-18T07:04:10.182Z,0.00
2022-11-18T07:05:10.169Z,0.00
2022-11-18T07:06:10.236Z,0.00
2022-11-18T07:07:10.297Z,0.00
2022-11-18T07:08:10.143Z,0.00
2022-11-18T07:09:10.111Z,0.00
2022-11-18T07:10:10.512Z,0.00
2022-11-18T07:11:10.122Z,0.00
2022-11-18T07:12:10.122Z,0.00
2022-11-18T07:13:10.069Z,0.00
2022-11-18T07:14:10.074Z,0.00
2022-11-18T07:15:10.040Z,0.00
2022-11-18T07:16:10.053Z,0.00
2022-11-18T07:17:20.801Z,0.00
2022-11-18T07:18:10.110Z,0.00
2022-11-18T07:19:10.028Z,0.00
2022-11-18T07:20:10.013Z,0.00
2022-11-18T07:21:10.024Z,0.00
2022-11-18T07:22:10.033Z,0.00
2022-11-18T07:23:09.971Z,0.00
2022-11-18T07:24:09.954Z,0.00
2022-11-18T07:25:10.004Z,0.00
2022-11-18T07:26:09.929Z,0.00
2022-11-18T07:27:09.913Z,0.00
2022-11-18T07:28:09.941Z,0.00
2022-11-18T07:29:09.918Z,0.00
2022-11-18T07:30:09.950Z,0.00
2022-11-18T07:31:09.871Z,0.00
2022-11-18T07:32:09.870Z,0.00
2022-11-18T07:33:09.893Z,0.00
2022-11-18T07:34:09.875Z,0.00
2022-11-18T07:35:09.855Z,0.00
2022-11-18T07:36:09.890Z,0.00
2022-11-18T07:37:09.876Z,0.00
2022-11-18T07:38:10.312Z,0.00
2022-11-18T07:40:37.812Z,157.50
2022-11-18T07:41:37.736Z,157.50
2022-11-18T07:42:37.773Z,168.75
2022-11-18T07:43:37.703Z,174.38
2022-11-18T07:44:37.718Z,185.62
2022-11-18T07:45:37.701Z,185.62
2022-11-18T07:46:37.678Z,180.00
2022-11-18T07:47:37.674Z,151.88
2022-11-18T07:48:37.680Z,151.88
2022-11-18T07:49:37.677Z,163.12
2022-11-18T07:50:37.667Z,157.50
2022-11-18T07:51:37.746Z,146.25
2022-11-18T07:52:37.612Z,140.62
2022-11-18T07:53:37.738Z,129.38
2022-11-18T07:54:37.592Z,112.50
2022-11-18T07:55:37.673Z,112.50
2022-11-18T07:56:37.589Z,112.50
2022-11-18T07:57:37.623Z,101.25
2022-11-18T07:58:37.559Z,106.88
2022-11-18T07:59:37.533Z,129.38
2022-11-18T08:00:37.704Z,129.38
2022-11-18T08:01:37.623Z,135.00
2022-11-18T08:02:37.560Z,151.88
2022-11-18T08:03:37.551Z,157.50
2022-11-18T08:04:37.607Z,168.75
2022-11-18T08:05:37.611Z,180.00
2022-11-18T08:06:37.500Z,168.75
2022-11-18T08:07:37.758Z,208.12
2022-11-18T08:08:37.535Z,275.62
2022-11-18T08:09:37.499Z,360.00
2022-11-18T08:10:37.463Z,399.38
2022-11-18T08:11:37.431Z,405.00
2022-11-18T08:12:37.470Z,399.38
2022-11-18T08:13:37.400Z,405.00
2022-11-18T08:14:37.390Z,405.00
2022-11-18T08:15:37.511Z,399.38
2022-11-18T08:16:37.449Z,376.88
2022-11-18T08:17:42.428Z,320.62
2022-11-18T08:18:37.391Z,270.00
2022-11-18T08:19:37.332Z,230.62
2022-11-18T08:20:37.491Z,225.00
2022-11-18T08:21:37.342Z,208.12
2022-11-18T08:22:37.297Z,241.88
2022-11-18T08:23:41.669Z,258.75
2022-11-18T08:24:37.296Z,253.12
2022-11-18T08:25:37.317Z,275.62
2022-11-18T08:26:37.257Z,309.38
2022-11-18T08:27:37.275Z,270.00
2022-11-18T08:28:37.344Z,275.62
2022-11-18T08:29:37.233Z,270.00
2022-11-18T08:30:37.272Z,270.00
2022-11-18T08:31:37.199Z,360.00
2022-11-18T08:32:37.202Z,343.12
2022-11-18T08:33:37.172Z,326.25
2022-11-18T08:34:37.163Z,371.25
2022-11-18T08:35:37.144Z,371.25
2022-11-18T08:36:37.345Z,298.12
2022-11-18T08:37:37.134Z,230.62
2022-11-18T08:38:37.174Z,371.25
2022-11-18T08:39:37.124Z,568.12
2022-11-18T08:40:37.175Z,545.62
2022-11-18T08:41:37.185Z,421.88
2022-11-18T08:42:37.076Z,376.88
2022-11-18T08:43:37.133Z,315.00
2022-11-18T08:44:37.092Z,292.50
2022-11-18T08:45:37.042Z,281.25
2022-11-18T08:46:37.039Z,326.25
2022-11-18T08:47:41.786Z,337.50
2022-11-18T08:48:37.011Z,354.38
2022-11-18T08:49:36.996Z,303.75
2022-11-18T08:50:36.994Z,320.62
2022-11-18T08:51:37.022Z,315.00
2022-11-18T08:52:37.002Z,270.00
2022-11-18T08:53:36.959Z,348.75
2022-11-18T08:54:36.941Z,556.88
2022-11-18T08:55:37.105Z,483.75
2022-11-18T08:56:36.938Z,416.25
2022-11-18T08:57:36.909Z,343.12
2022-11-18T08:58:36.941Z,309.38
2022-11-18T08:59:36.962Z,286.88
2022-11-18T09:00:36.917Z,320.62
2022-11-18T09:01:37.009Z,298.12
2022-11-18T09:02:37.311Z,309.38
2022-11-18T09:03:36.838Z,416.25
2022-11-18T09:04:36.855Z,416.25
2022-11-18T09:05:36.849Z,320.62
2022-11-18T09:06:36.810Z,360.00
2022-11-18T09:07:36.907Z,281.25
2022-11-18T09:08:36.810Z,174.38
2022-11-18T09:09:36.805Z,123.75
2022-11-18T09:10:36.787Z,118.12
2022-11-18T09:11:37.806Z,118.12
2022-11-18T09:12:36.748Z,163.12
2022-11-18T09:14:20.458Z,151.88
2022-11-18T09:15:37.721Z,135.00
2022-11-18T09:16:36.800Z,118.12
2022-11-18T09:18:02.731Z,118.12
2022-11-18T09:18:36.692Z,123.75
2022-11-18T09:19:52.092Z,106.88
2022-11-18T09:20:37.661Z,95.62
2022-11-18T09:22:37.690Z,90.00
2022-11-18T09:23:36.680Z,95.62
2022-11-18T09:24:36.648Z,118.12
2022-11-18T09:25:36.605Z,191.25
2022-11-18T09:26:36.881Z,185.62
2022-11-18T09:27:36.609Z,230.62
2022-11-18T09:28:36.584Z,326.25
2022-11-18T09:29:36.584Z,281.25
2022-11-18T09:30:36.737Z,298.12
2022-11-18T09:31:36.556Z,416.25
2022-11-18T09:32:36.558Z,236.25
2022-11-18T09:33:36.591Z,208.12
2022-11-18T09:34:36.757Z,157.50
2022-11-18T09:35:36.577Z,151.88
2022-11-18T09:36:36.490Z,146.25
2022-11-18T09:37:36.536Z,157.50
2022-11-18T09:38:36.482Z,135.00
2022-11-18T09:39:36.474Z,123.75
2022-11-18T09:40:36.458Z,129.38
2022-11-18T09:41:36.436Z,129.38
2022-11-18T09:42:36.436Z,174.38
2022-11-18T09:43:36.529Z,247.50
2022-11-18T09:44:36.460Z,455.62
2022-11-18T09:45:36.413Z,770.62
2022-11-18T09:46:36.482Z,680.62
2022-11-18T09:47:57.390Z,663.75
2022-11-18T09:48:36.375Z,596.25
2022-11-18T09:49:36.406Z,731.25
2022-11-18T09:50:51.742Z,624.38
2022-11-18T09:51:37.385Z,489.38
2022-11-18T09:52:36.439Z,416.25
2022-11-18T09:53:36.380Z,511.88
2022-11-18T09:54:36.394Z,427.50
2022-11-18T09:55:36.335Z,286.88
2022-11-18T09:56:36.313Z,202.50
2022-11-18T09:57:36.302Z,191.25
2022-11-18T09:58:36.298Z,163.12
2022-11-18T09:59:36.274Z,140.62
2022-11-18T10:00:36.330Z,140.62
2022-11-18T10:01:36.302Z,129.38
2022-11-18T10:02:36.209Z,157.50
2022-11-18T10:03:36.212Z,191.25
2022-11-18T10:04:36.350Z,180.00
2022-11-18T10:05:36.208Z,157.50
2022-11-18T10:06:36.289Z,140.62
2022-11-18T10:07:36.221Z,135.00
2022-11-18T10:08:36.144Z,168.75
2022-11-18T10:11:08.207Z,174.38
2022-11-18T10:12:08.225Z,163.12
2022-11-18T10:13:08.205Z,151.88
2022-11-18T10:14:08.159Z,168.75
2022-11-18T10:15:08.133Z,163.12
2022-11-18T10:16:08.131Z,135.00
2022-11-18T10:17:13.078Z,118.12
2022-11-18T10:18:08.102Z,123.75
2022-11-18T10:19:08.069Z,129.38
2022-11-18T10:20:08.062Z,146.25
2022-11-18T10:21:08.054Z,157.50
2022-11-18T10:22:15.671Z,180.00
2022-11-18T10:23:09.067Z,185.62
2022-11-18T10:24:08.034Z,185.62
2022-11-18T10:25:08.034Z,196.88
2022-11-18T10:26:08.014Z,213.75
2022-11-18T10:27:08.512Z,208.12
2022-11-18T10:28:08.063Z,208.12
2022-11-18T10:29:08.015Z,202.50
2022-11-18T10:30:07.990Z,191.25
2022-11-18T10:31:08.556Z,196.88
2022-11-18T10:32:08.036Z,230.62
2022-11-18T10:33:07.938Z,253.12
2022-11-18T10:34:08.039Z,253.12
2022-11-18T10:35:07.917Z,303.75
2022-11-18T10:36:07.959Z,320.62
2022-11-18T10:37:07.899Z,303.75
2022-11-18T10:38:09.031Z,348.75
2022-11-18T10:39:07.879Z,354.38
2022-11-18T10:40:15.309Z,405.00
2022-11-18T10:41:15.375Z,416.25
2022-11-18T10:42:07.977Z,427.50
2022-11-18T10:43:07.830Z,478.12
2022-11-18T10:44:12.007Z,523.12
2022-11-18T10:45:07.881Z,540.00
2022-11-18T10:46:07.879Z,500.62
2022-11-18T10:47:28.826Z,483.75
2022-11-18T10:48:07.776Z,427.50
2022-11-18T10:49:07.873Z,495.00
2022-11-18T10:50:07.793Z,489.38
2022-11-18T10:51:07.946Z,410.62
2022-11-18T10:52:08.085Z,461.25
2022-11-18T10:53:07.873Z,405.00
2022-11-18T10:54:07.987Z,303.75
2022-11-18T10:55:07.801Z,281.25
2022-11-18T10:56:07.702Z,298.12
2022-11-18T10:57:07.771Z,298.12
2022-11-18T10:58:07.758Z,253.12
2022-11-18T10:59:07.670Z,270.00
2022-11-18T11:00:07.703Z,196.88
2022-11-18T11:01:07.950Z,163.12
2022-11-18T11:02:10.021Z,208.12
2022-11-18T11:03:07.760Z,225.00
2022-11-18T11:04:07.712Z,202.50
2022-11-18T11:05:07.946Z,236.25
2022-11-18T11:06:07.632Z,258.75
2022-11-18T11:07:07.751Z,247.50
2022-11-18T11:08:35.241Z,225.00
2022-11-18T11:09:08.596Z,247.50
2022-11-18T11:10:07.581Z,331.88
2022-11-18T11:11:07.683Z,320.62
2022-11-18T11:12:07.583Z,320.62
2022-11-18T11:13:07.511Z,371.25
2022-11-18T11:14:07.565Z,264.38
2022-11-18T11:15:07.600Z,281.25
2022-11-18T11:16:07.637Z,241.88
2022-11-18T11:17:12.218Z,219.38
2022-11-18T11:18:07.491Z,258.75
2022-11-18T11:19:07.505Z,253.12
2022-11-18T11:20:07.515Z,275.62
2022-11-18T11:21:07.451Z,286.88
2022-11-18T11:22:07.828Z,281.25
2022-11-18T11:23:07.434Z,331.88
2022-11-18T11:24:07.472Z,337.50
2022-11-18T11:25:07.391Z,388.12
2022-11-18T11:29:07.329Z,523.12
2022-11-18T11:30:07.348Z,545.62
2022-11-18T11:31:07.371Z,579.38
2022-11-18T11:32:07.422Z,523.12
2022-11-18T11:33:07.631Z,461.25
2022-11-18T11:34:07.318Z,478.12
2022-11-18T11:35:07.333Z,506.25
2022-11-18T11:36:07.346Z,573.75
2022-11-18T11:37:07.255Z,545.62
2022-11-18T11:38:07.250Z,652.50
2022-11-18T11:39:07.298Z,641.25
2022-11-18T11:40:07.249Z,720.00
2022-11-18T11:41:07.849Z,646.88
2022-11-18T11:42:07.241Z,585.00
2022-11-18T11:43:07.194Z,540.00
2022-11-18T11:44:07.193Z,573.75
2022-11-18T11:45:07.393Z,596.25
2022-11-18T11:46:07.153Z,579.38
2022-11-18T11:47:28.215Z,511.88
2022-11-18T11:48:07.211Z,388.12
2022-11-18T11:49:07.140Z,354.38
2022-11-18T11:50:07.137Z,376.88
2022-11-18T11:51:07.161Z,416.25
2022-11-18T11:52:07.146Z,433.12
2022-11-18T11:53:07.100Z,421.88
2022-11-18T11:54:07.176Z,483.75
2022-11-18T11:55:07.073Z,585.00
2022-11-18T11:56:07.094Z,607.50
2022-11-18T11:57:07.056Z,601.88
2022-11-18T11:58:07.144Z,624.38
2022-11-18T11:59:07.086Z,624.38
2022-11-18T12:00:07.059Z,618.75
2022-11-18T12:01:07.134Z,579.38
2022-11-18T12:02:07.139Z,511.88
2022-11-18T12:03:07.114Z,455.62
2022-11-18T12:04:06.979Z,416.25
2022-11-18T12:05:06.960Z,376.88
2022-11-18T12:06:07.057Z,337.50
2022-11-18T12:07:07.001Z,315.00
2022-11-18T12:08:07.017Z,298.12
2022-11-18T12:09:06.933Z,303.75
2022-11-18T12:10:06.936Z,315.00
2022-11-18T12:11:06.971Z,320.62
2022-11-18T12:12:06.884Z,320.62
2022-11-18T12:13:07.000Z,303.75
2022-11-18T12:14:07.117Z,275.62
2022-11-18T12:15:06.862Z,241.88
2022-11-18T12:16:06.896Z,241.88
2022-11-18T12:17:06.890Z,264.38
2022-11-18T12:18:06.842Z,281.25
2022-11-18T12:19:07.071Z,264.38
2022-11-18T12:20:06.828Z,241.88
2022-11-18T12:21:07.127Z,236.25
2022-11-18T12:22:06.830Z,236.25
2022-11-18T12:23:06.797Z,236.25
2022-11-18T12:24:06.752Z,236.25
2022-11-18T12:25:06.788Z,230.62
2022-11-18T12:26:06.767Z,253.12
2022-11-18T12:27:06.864Z,264.38
2022-11-18T12:28:06.791Z,253.12
2022-11-18T12:29:06.721Z,236.25
2022-11-18T12:30:07.129Z,219.38
2022-11-18T12:31:06.769Z,236.25
2022-11-18T12:32:06.726Z,236.25
2022-11-18T12:33:06.735Z,219.38
2022-11-18T12:34:06.670Z,208.12
2022-11-18T12:35:07.121Z,208.12
2022-11-18T12:36:06.655Z,236.25
2022-11-18T12:37:06.655Z,275.62
2022-11-18T12:38:06.618Z,281.25
2022-11-18T12:39:06.778Z,258.75
2022-11-18T12:40:06.606Z,247.50
2022-11-18T12:41:06.616Z,219.38
2022-11-18T12:42:06.613Z,185.62
2022-11-18T12:43:06.583Z,174.38
2022-11-18T12:44:06.856Z,168.75
2022-11-18T12:45:06.547Z,168.75
2022-11-18T12:46:06.533Z,191.25
2022-11-18T12:47:06.691Z,191.25
2022-11-18T12:48:06.537Z,196.88
2022-11-18T12:49:06.537Z,213.75
2022-11-18T12:50:06.552Z,208.12
2022-11-18T12:51:06.547Z,219.38
2022-11-18T12:52:06.473Z,225.00
2022-11-18T12:53:06.459Z,202.50
2022-11-18T12:54:11.066Z,196.88
2022-11-18T12:55:07.537Z,174.38
2022-11-18T12:56:06.479Z,129.38
2022-11-18T12:57:06.537Z,135.00
2022-11-18T12:58:06.421Z,151.88
2022-11-18T12:59:06.415Z,157.50
2022-11-18T13:00:06.414Z,157.50
2022-11-18T13:01:06.510Z,180.00
2022-11-18T13:02:06.652Z,196.88
2022-11-18T13:03:07.407Z,191.25
2022-11-18T13:04:06.514Z,180.00
2022-11-18T13:05:06.440Z,196.88